Mill Village, Pennsylvania
Current Conditions -  °F | °C
As of 7:51 PM on Tuesday 21 Oct 2014 (Local Time) from KERI Reporting Station
Light Rain Light Rain  
Wind Chill: 43°   Ceiling: 1100
Heat Index: 49°   Visibility: 6mi
Dew Point: 45°   Wind: 15mph
Humidity: 86%   Direction: 20°NNE
Pressure: 30.02"   Gusts: 23mph
Location:  41.88°N, 79.97°W
Report Text: KERI 212351Z 02013G20KT 6SM -RA BR OVC011 09/07 A3002 RMK AO2 SLP166 P0003 60011 T00940072 10111 20094 53019
Loading
Personal Weather Stations






























Interactive Weather Map New forecast layout! Learn more

10-Day Weather Forecast

Advertisements
Track Severe Weather on mobile